createdAt,value
2017-05-12T00:00:31.478Z,17.28
2017-05-12T00:01:32.723Z,17.26
2017-05-12T00:02:34.130Z,17.23
2017-05-12T00:03:35.379Z,17.26
2017-05-12T00:04:36.668Z,17.23
2017-05-12T00:05:38.034Z,17.2
2017-05-12T00:06:39.283Z,17.29
2017-05-12T00:07:40.561Z,17.22
2017-05-12T00:08:41.840Z,17.22
2017-05-12T00:09:43.076Z,17.23
2017-05-12T00:10:44.473Z,17.22
2017-05-12T00:11:45.717Z,17.14
2017-05-12T00:12:46.962Z,17.2
2017-05-12T00:13:48.227Z,17.25
2017-05-12T00:14:49.478Z,17.18
2017-05-12T00:15:50.792Z,17.18
2017-05-12T00:16:52.127Z,17.18
2017-05-12T00:17:53.379Z,17.2
2017-05-12T00:18:54.637Z,17.22
2017-05-12T00:19:55.906Z,17.04
2017-05-12T00:20:57.170Z,17.15
2017-05-12T00:21:58.447Z,17.04
2017-05-12T00:22:59.698Z,17.07
2017-05-12T00:24:00.962Z,17.13
2017-05-12T00:25:02.233Z,17.04
2017-05-12T00:26:03.506Z,17.18
2017-05-12T00:27:04.776Z,17.07
2017-05-12T00:28:06.062Z,17.17
2017-05-12T00:29:07.299Z,17.08
2017-05-12T00:30:08.627Z,17.1
2017-05-12T00:31:09.903Z,17.06
2017-05-12T00:32:11.184Z,17.14
2017-05-12T00:33:12.471Z,17.17
2017-05-12T00:34:13.737Z,17.14
2017-05-12T00:35:14.997Z,17.14
2017-05-12T00:36:16.266Z,17.14
2017-05-12T00:37:17.529Z,17.14
2017-05-12T00:38:18.780Z,17.06
2017-05-12T00:39:20.124Z,17.1
2017-05-12T00:40:21.406Z,17.07
2017-05-12T00:41:22.657Z,17.1
2017-05-12T00:42:23.947Z,17.04
2017-05-12T00:43:25.223Z,17.03
2017-05-12T00:44:26.594Z,17.07
2017-05-12T00:45:27.888Z,17.03
2017-05-12T00:46:29.192Z,17.07
2017-05-12T00:47:30.453Z,16.99
2017-05-12T00:48:31.772Z,16.99
2017-05-12T00:49:32.921Z,17.07
2017-05-12T00:50:34.155Z,17
2017-05-12T00:51:35.429Z,17.06
2017-05-12T00:52:36.669Z,16.99
2017-05-12T00:53:38.010Z,17
2017-05-12T00:54:39.172Z,17.04
2017-05-12T00:55:40.450Z,16.96
2017-05-12T00:56:41.746Z,17.14
2017-05-12T00:57:43.001Z,17
2017-05-12T00:58:44.280Z,17.07
2017-05-12T00:59:45.515Z,17.08
2017-05-12T01:00:46.809Z,17.08
2017-05-12T01:01:48.083Z,17.14
2017-05-12T01:02:49.372Z,17.06
2017-05-12T01:03:50.705Z,17.06
2017-05-12T01:04:52.099Z,17.04
2017-05-12T01:05:53.249Z,16.98
2017-05-12T01:06:54.549Z,16.96
2017-05-12T01:07:55.809Z,17.03
2017-05-12T01:08:57.073Z,17
2017-05-12T01:09:58.381Z,17.03
2017-05-12T01:10:59.671Z,17.03
2017-05-12T01:12:00.932Z,17.08
2017-05-12T01:13:02.199Z,17
2017-05-12T01:14:03.446Z,17.07
2017-05-12T01:15:04.722Z,17.06
2017-05-12T01:16:06.002Z,16.95
2017-05-12T01:17:07.202Z,16.98
2017-05-12T01:18:08.504Z,16.98
2017-05-12T01:19:09.762Z,16.96
2017-05-12T01:20:10.998Z,16.95
2017-05-12T01:21:12.241Z,16.99
2017-05-12T01:22:13.535Z,16.95
2017-05-12T01:23:14.931Z,16.92
2017-05-12T01:24:16.233Z,16.95
2017-05-12T01:25:17.560Z,16.88
2017-05-12T01:26:18.796Z,16.95
2017-05-12T01:27:20.077Z,16.93
2017-05-12T01:28:21.370Z,16.92
2017-05-12T01:29:22.595Z,16.95
2017-05-12T01:30:23.879Z,16.81
2017-05-12T01:31:25.135Z,16.86
2017-05-12T01:32:26.418Z,16.86
2017-05-12T01:33:27.698Z,16.9
2017-05-12T01:34:29.031Z,16.85
2017-05-12T01:35:30.323Z,16.9
2017-05-12T01:36:31.608Z,16.85
2017-05-12T01:37:32.875Z,16.78
2017-05-12T01:38:34.224Z,16.8
2017-05-12T01:39:35.487Z,16.85
2017-05-12T01:40:36.799Z,16.8
2017-05-12T01:41:38.055Z,16.81
2017-05-12T01:42:39.312Z,16.8
2017-05-12T01:43:40.561Z,16.8
2017-05-12T01:44:41.813Z,16.74
2017-05-12T01:45:43.115Z,16.8
2017-05-12T01:46:44.430Z,16.7
2017-05-12T01:47:45.849Z,16.71
2017-05-12T01:48:47.005Z,16.71
2017-05-12T01:49:48.269Z,16.68
2017-05-12T01:50:49.578Z,16.68
2017-05-12T01:51:50.916Z,16.71
2017-05-12T01:52:52.265Z,16.59
2017-05-12T01:53:53.554Z,16.58
2017-05-12T01:54:54.815Z,16.55
2017-05-12T01:55:56.096Z,16.56
2017-05-12T01:56:57.334Z,16.55
2017-05-12T01:57:58.630Z,16.56
2017-05-12T01:59:00.022Z,16.52
2017-05-12T02:00:01.244Z,16.56
2017-05-12T02:01:02.619Z,16.5
2017-05-12T02:02:03.890Z,16.48
2017-05-12T02:03:05.255Z,16.42
2017-05-12T02:04:06.574Z,16.48
2017-05-12T02:05:07.803Z,16.44
2017-05-12T02:06:09.083Z,16.44
2017-05-12T02:07:10.333Z,16.4
2017-05-12T02:08:11.580Z,16.38
2017-05-12T02:09:12.855Z,16.41
2017-05-12T02:10:14.114Z,16.4
2017-05-12T02:11:15.397Z,16.35
2017-05-12T02:12:16.668Z,16.23
2017-05-12T02:13:17.927Z,16.34
2017-05-12T02:14:19.194Z,16.3
2017-05-12T02:15:20.475Z,16.26
2017-05-12T02:16:21.716Z,16.3
2017-05-12T02:17:23.039Z,16.23
2017-05-12T02:18:24.330Z,16.2
2017-05-12T02:19:25.571Z,16.25
2017-05-12T02:20:26.886Z,16.26
2017-05-12T02:21:28.318Z,16.14
2017-05-12T02:22:29.569Z,16.09
2017-05-12T02:23:30.817Z,16.12
2017-05-12T02:24:32.071Z,16.11
2017-05-12T02:25:33.309Z,16.07
2017-05-12T02:26:34.562Z,16.07
2017-05-12T02:27:35.832Z,16.12
2017-05-12T02:28:37.235Z,16.03
2017-05-12T02:29:38.598Z,16
2017-05-12T02:30:39.851Z,15.93
2017-05-12T02:31:41.109Z,15.99
2017-05-12T02:32:42.382Z,15.96
2017-05-12T02:33:43.674Z,16
2017-05-12T02:34:44.996Z,15.97
2017-05-12T02:35:46.247Z,15.99
2017-05-12T02:36:47.473Z,15.96
2017-05-12T02:37:48.734Z,15.96
2017-05-12T02:38:49.995Z,15.94
2017-05-12T02:39:51.294Z,15.97
2017-05-12T02:40:52.528Z,15.88
2017-05-12T02:41:53.784Z,15.85
2017-05-12T02:42:55.078Z,15.84
2017-05-12T02:43:56.360Z,15.92
2017-05-12T02:44:57.628Z,15.89
2017-05-12T02:45:58.911Z,15.85
2017-05-12T02:47:00.152Z,15.92
2017-05-12T02:48:01.406Z,15.79
2017-05-12T02:49:02.722Z,15.85
2017-05-12T02:50:03.978Z,15.82
2017-05-12T02:51:05.204Z,15.68
2017-05-12T02:52:06.512Z,15.74
2017-05-12T02:53:07.878Z,15.79
2017-05-12T02:54:09.142Z,15.75
2017-05-12T02:55:10.463Z,15.75
2017-05-12T02:56:11.724Z,15.75
2017-05-12T02:57:12.989Z,15.7
2017-05-12T02:58:14.237Z,15.63
2017-05-12T02:59:15.541Z,15.68
2017-05-12T03:00:16.801Z,15.64
2017-05-12T03:01:18.044Z,15.57
2017-05-12T03:02:19.348Z,15.49
2017-05-12T03:03:20.742Z,15.52
2017-05-12T03:04:22.118Z,15.48
2017-05-12T03:05:23.377Z,15.49
2017-05-12T03:06:24.740Z,15.52
2017-05-12T03:07:26.039Z,15.59
2017-05-12T03:08:27.324Z,15.49
2017-05-12T03:09:28.798Z,15.49
2017-05-12T03:10:30.033Z,15.39
2017-05-12T03:11:31.306Z,15.41
2017-05-12T03:12:32.571Z,15.43
2017-05-12T03:13:33.817Z,15.36
2017-05-12T03:14:35.079Z,15.39
2017-05-12T03:15:36.322Z,15.35
2017-05-12T03:16:37.605Z,15.43
2017-05-12T03:17:38.845Z,15.33
2017-05-12T03:18:40.173Z,15.36
2017-05-12T03:19:41.410Z,15.31
2017-05-12T03:20:42.677Z,15.31
2017-05-12T03:21:43.953Z,15.23
2017-05-12T03:22:45.242Z,15.21
2017-05-12T03:23:46.511Z,15.26
2017-05-12T03:24:47.775Z,15.12
2017-05-12T03:25:49.161Z,15.21
2017-05-12T03:26:50.395Z,15.12
2017-05-12T03:27:51.628Z,15.06
2017-05-12T03:28:52.871Z,15.11
2017-05-12T03:29:54.131Z,15.08
2017-05-12T03:30:55.393Z,15.06
2017-05-12T03:31:56.656Z,15.08
2017-05-12T03:32:57.902Z,15.08
2017-05-12T03:33:59.181Z,15.12
2017-05-12T03:35:00.427Z,15.02
2017-05-12T03:36:01.688Z,15.06
2017-05-12T03:37:02.943Z,15.09
2017-05-12T03:38:04.205Z,15.09
2017-05-12T03:39:05.468Z,15.08
2017-05-12T03:40:06.741Z,15.06
2017-05-12T03:41:07.990Z,14.94
2017-05-12T03:42:09.238Z,15.08
2017-05-12T03:43:10.528Z,15.06
2017-05-12T03:44:11.781Z,15.08
2017-05-12T03:45:13.040Z,15.03
2017-05-12T03:46:14.292Z,15.09
2017-05-12T03:47:15.576Z,15.02
2017-05-12T03:48:16.839Z,15.01
2017-05-12T03:49:18.147Z,15.03
2017-05-12T03:50:19.376Z,15.05
2017-05-12T03:51:20.651Z,14.99
2017-05-12T03:52:21.910Z,15.05
2017-05-12T03:53:23.244Z,15.05
2017-05-12T03:54:24.496Z,14.99
2017-05-12T03:55:25.714Z,15.02
2017-05-12T03:56:26.973Z,14.9
2017-05-12T03:57:28.380Z,14.9
2017-05-12T03:58:29.633Z,14.87
2017-05-12T03:59:30.879Z,14.95
2017-05-12T04:00:32.173Z,14.87
2017-05-12T04:01:33.425Z,14.9
2017-05-12T04:02:34.689Z,15.01
2017-05-12T04:03:35.989Z,15.01
2017-05-12T04:04:37.293Z,14.88
2017-05-12T04:05:38.636Z,14.93
2017-05-12T04:06:39.887Z,15.03
2017-05-12T04:07:41.181Z,14.99
2017-05-12T04:08:42.407Z,15.02
2017-05-12T04:09:43.683Z,15.02
2017-05-12T04:10:44.923Z,14.94
2017-05-12T04:11:46.184Z,15.03
2017-05-12T04:12:47.426Z,15.02
2017-05-12T04:13:48.694Z,15.02
2017-05-12T04:14:49.925Z,15.02
2017-05-12T04:15:51.176Z,14.99
2017-05-12T04:16:52.516Z,15.02
2017-05-12T04:17:53.807Z,15.01
2017-05-12T04:18:55.099Z,15.01
2017-05-12T04:19:56.449Z,14.94
2017-05-12T04:20:57.682Z,15.05
2017-05-12T04:21:59.002Z,15.02
2017-05-12T04:23:00.296Z,15.02
2017-05-12T04:24:01.617Z,15.06
2017-05-12T04:25:02.871Z,15.05
2017-05-12T04:26:04.163Z,15.05
2017-05-12T04:27:05.514Z,15.02
2017-05-12T04:28:06.776Z,15.05
2017-05-12T04:29:08.052Z,15.06
2017-05-12T04:30:09.316Z,15.05
2017-05-12T04:31:10.725Z,15.03
2017-05-12T04:32:12.153Z,15.05
2017-05-12T04:33:13.382Z,15.08
2017-05-12T04:34:14.614Z,15.08
2017-05-12T04:35:15.850Z,15.06
2017-05-12T04:36:17.097Z,15.06
2017-05-12T04:37:18.406Z,15.11
2017-05-12T04:38:19.641Z,15.2
2017-05-12T04:39:20.946Z,15.08
2017-05-12T04:40:22.159Z,15.15
2017-05-12T04:41:23.434Z,15.11
2017-05-12T04:42:24.681Z,15.15
2017-05-12T04:43:25.933Z,15.11
2017-05-12T04:44:27.193Z,15.15
2017-05-12T04:45:28.552Z,15.11
2017-05-12T04:46:29.862Z,15.19
2017-05-12T04:47:31.148Z,15.2
2017-05-12T04:48:32.368Z,15.2
2017-05-12T04:49:33.659Z,15.21
2017-05-12T04:50:34.955Z,15.24
2017-05-12T04:51:36.254Z,15.31
2017-05-12T04:52:37.511Z,15.28
2017-05-12T04:53:38.811Z,15.28
2017-05-12T04:54:40.088Z,15.28
2017-05-12T04:55:41.337Z,15.3
2017-05-12T04:56:42.613Z,15.24
2017-05-12T04:57:43.864Z,15.36
2017-05-12T04:58:45.179Z,15.27
2017-05-12T04:59:46.444Z,15.27
2017-05-12T05:00:47.690Z,15.26
2017-05-12T05:01:49.011Z,15.27
2017-05-12T05:02:50.382Z,15.26
2017-05-12T05:03:51.548Z,15.24
2017-05-12T05:04:52.787Z,15.17
2017-05-12T05:05:54.042Z,15.19
2017-05-12T05:06:55.294Z,15.13
2017-05-12T05:07:56.585Z,15.13
2017-05-12T05:08:57.858Z,15.13
2017-05-12T05:09:59.162Z,15.08
2017-05-12T05:11:00.432Z,15.15
2017-05-12T05:12:01.684Z,15.08
2017-05-12T05:13:02.929Z,15.12
2017-05-12T05:14:04.263Z,15.19
2017-05-12T05:15:05.494Z,15.13
2017-05-12T05:16:06.825Z,15.15
2017-05-12T05:17:08.051Z,15.17
2017-05-12T05:18:09.321Z,15.08
2017-05-12T05:19:10.554Z,15.06
2017-05-12T05:20:11.779Z,15.13
2017-05-12T05:21:13.062Z,15.05
2017-05-12T05:22:14.352Z,15.06
2017-05-12T05:23:15.612Z,15.03
2017-05-12T05:24:16.891Z,15.08
2017-05-12T05:25:18.164Z,15.08
2017-05-12T05:26:19.407Z,15.05
2017-05-12T05:27:20.646Z,15.02
2017-05-12T05:28:22.005Z,14.94
2017-05-12T05:29:23.279Z,15.05
2017-05-12T05:30:24.553Z,14.94
2017-05-12T05:31:25.780Z,15.05
2017-05-12T05:32:27.058Z,14.98
2017-05-12T05:33:28.280Z,15.03
2017-05-12T05:34:29.601Z,15.03
2017-05-12T05:35:30.861Z,15.09
2017-05-12T05:36:32.088Z,15.11
2017-05-12T05:37:33.360Z,15.11
2017-05-12T05:38:34.652Z,15.08
2017-05-12T05:39:35.895Z,15.17
2017-05-12T05:40:37.202Z,15.19
2017-05-12T05:41:38.535Z,15.19
2017-05-12T05:42:39.750Z,15.23
2017-05-12T05:43:41.000Z,15.12
2017-05-12T05:44:42.291Z,15.2
2017-05-12T05:45:43.570Z,15.23
2017-05-12T05:46:44.828Z,15.2
2017-05-12T05:47:46.183Z,15.23
2017-05-12T05:48:47.444Z,15.2
2017-05-12T05:49:48.744Z,15.23
2017-05-12T05:50:49.969Z,15.3
2017-05-12T05:51:51.303Z,15.26
2017-05-12T05:52:52.608Z,15.28
2017-05-12T05:53:53.867Z,15.28
2017-05-12T05:54:55.153Z,15.28
2017-05-12T05:55:56.379Z,15.38
2017-05-12T05:56:57.634Z,15.26
2017-05-12T05:57:58.910Z,15.35
2017-05-12T05:59:00.188Z,15.23
2017-05-12T06:00:01.582Z,15.33
2017-05-12T06:01:02.890Z,15.41
2017-05-12T06:02:04.203Z,15.38
2017-05-12T06:03:05.420Z,15.3
2017-05-12T06:04:06.709Z,15.27
2017-05-12T06:05:08.127Z,15.27
2017-05-12T06:06:09.375Z,15.24
2017-05-12T06:07:10.687Z,15.24
2017-05-12T06:08:11.901Z,15.19
2017-05-12T06:09:13.175Z,15.21
2017-05-12T06:10:14.500Z,15.11
2017-05-12T06:11:15.948Z,15.11
2017-05-12T06:12:17.083Z,15.13
2017-05-12T06:13:18.365Z,15.09
2017-05-12T06:14:19.611Z,15.13
2017-05-12T06:15:20.872Z,15.11
2017-05-12T06:16:22.144Z,15.09
2017-05-12T06:17:23.421Z,15.01
2017-05-12T06:18:24.694Z,15.01
2017-05-12T06:19:25.978Z,14.9
2017-05-12T06:20:27.242Z,14.95
2017-05-12T06:21:28.555Z,14.91
2017-05-12T06:22:29.848Z,14.9
2017-05-12T06:23:31.105Z,14.94
2017-05-12T06:24:32.365Z,14.87
2017-05-12T06:25:33.615Z,14.94
2017-05-12T06:26:34.855Z,14.9
2017-05-12T06:27:36.140Z,14.83
2017-05-12T06:28:37.423Z,14.87
2017-05-12T06:29:38.693Z,14.8
2017-05-12T06:30:39.954Z,14.75
2017-05-12T06:31:41.199Z,14.8
2017-05-12T06:32:42.468Z,14.68
2017-05-12T06:33:43.737Z,14.68
2017-05-12T06:34:45.012Z,14.64
2017-05-12T06:35:46.265Z,14.62
2017-05-12T06:36:47.568Z,14.62
2017-05-12T06:37:48.880Z,14.62
2017-05-12T06:38:50.116Z,14.71
2017-05-12T06:39:51.401Z,14.64
2017-05-12T06:40:52.636Z,14.62
2017-05-12T06:41:54.034Z,14.61
2017-05-12T06:42:55.242Z,14.62
2017-05-12T06:43:56.524Z,14.6
2017-05-12T06:44:57.790Z,14.68
2017-05-12T06:45:59.041Z,14.61
2017-05-12T06:47:00.348Z,14.71
2017-05-12T06:48:01.558Z,14.75
2017-05-12T06:49:02.810Z,14.83
2017-05-12T06:50:04.049Z,14.83
2017-05-12T06:51:05.320Z,14.75
2017-05-12T06:52:06.634Z,14.81
2017-05-12T06:53:07.890Z,14.81
2017-05-12T06:54:09.163Z,14.86
2017-05-12T06:55:10.460Z,14.87
2017-05-12T06:56:11.701Z,14.86
2017-05-12T06:57:12.966Z,14.91
2017-05-12T06:58:14.279Z,14.93
2017-05-12T06:59:15.538Z,14.91
2017-05-12T07:00:16.823Z,14.94
2017-05-12T07:01:18.045Z,14.98
2017-05-12T07:02:19.297Z,14.9
2017-05-12T07:03:20.659Z,15.02
2017-05-12T07:04:21.886Z,15.02
2017-05-12T07:05:23.170Z,14.93
2017-05-12T07:06:24.518Z,15.05
2017-05-12T07:07:25.777Z,15.11
2017-05-12T07:08:27.046Z,15.11
2017-05-12T07:09:28.279Z,15.15
2017-05-12T07:10:29.584Z,15.09
2017-05-12T07:11:30.811Z,15.08
2017-05-12T07:12:32.090Z,15.12
2017-05-12T07:13:33.337Z,15.12
2017-05-12T07:14:34.610Z,15.11
2017-05-12T07:15:35.869Z,15.06
2017-05-12T07:16:37.122Z,15.06
2017-05-12T07:17:38.591Z,15.11
2017-05-12T07:18:40.004Z,15.06
2017-05-12T07:19:41.221Z,15.09
2017-05-12T07:20:42.532Z,15.13
2017-05-12T07:21:43.807Z,15.17
2017-05-12T07:22:45.219Z,15.31
2017-05-12T07:23:46.508Z,15.3
2017-05-12T07:24:47.758Z,15.24
2017-05-12T07:25:49.003Z,15.3
2017-05-12T07:26:50.266Z,15.28
2017-05-12T07:27:51.523Z,15.26
2017-05-12T07:28:52.807Z,15.31
2017-05-12T07:29:54.093Z,15.33
2017-05-12T07:30:55.363Z,15.24
2017-05-12T07:31:56.560Z,15.36
2017-05-12T07:32:57.864Z,15.33
2017-05-12T07:33:59.151Z,15.3
2017-05-12T07:35:00.430Z,15.28
2017-05-12T07:36:01.689Z,15.23
2017-05-12T07:37:02.969Z,15.17
2017-05-12T07:38:04.251Z,15.19
2017-05-12T07:39:05.490Z,15.12
2017-05-12T07:40:06.751Z,15.06
2017-05-12T07:41:08.138Z,15.12
2017-05-12T07:42:09.353Z,15.05
2017-05-12T07:43:10.730Z,15.05
2017-05-12T07:44:12.009Z,15.08
2017-05-12T07:45:13.279Z,14.94
2017-05-12T07:46:14.669Z,15.01
2017-05-12T07:47:16.093Z,15.08
2017-05-12T07:48:17.246Z,14.99
2017-05-12T07:49:18.511Z,15.02
2017-05-12T07:50:19.739Z,14.94
2017-05-12T07:51:20.995Z,14.87
2017-05-12T07:52:22.480Z,14.99
2017-05-12T07:53:23.749Z,15.01
2017-05-12T07:54:25.004Z,14.93
2017-05-12T07:55:26.295Z,14.91
2017-05-12T07:56:27.532Z,14.95
2017-05-12T07:57:28.823Z,15.05
2017-05-12T07:58:30.105Z,15.05
2017-05-12T07:59:31.369Z,15.08
2017-05-12T08:00:32.603Z,15.03
2017-05-12T08:01:33.898Z,14.99
2017-05-12T08:02:35.241Z,15.02
2017-05-12T08:03:36.506Z,15.01
2017-05-12T08:04:37.833Z,15.11
2017-05-12T08:05:39.083Z,15.13
2017-05-12T08:06:40.312Z,15.03
2017-05-12T08:07:41.593Z,15.06
2017-05-12T08:08:42.889Z,15.05
2017-05-12T08:09:44.199Z,15.05
2017-05-12T08:10:45.466Z,15.12
2017-05-12T08:11:46.737Z,15.15
2017-05-12T08:12:47.976Z,15.19
2017-05-12T08:13:49.212Z,15.33
2017-05-12T08:14:50.476Z,15.3
2017-05-12T08:15:51.747Z,15.21
2017-05-12T08:16:53.127Z,15.31
2017-05-12T08:17:54.384Z,15.39
2017-05-12T08:18:55.642Z,15.31
2017-05-12T08:19:56.918Z,15.38
2017-05-12T08:20:58.205Z,15.42
2017-05-12T08:21:59.452Z,15.41
2017-05-12T08:23:00.723Z,15.38
2017-05-12T08:24:01.985Z,15.45
2017-05-12T08:25:03.224Z,15.54
2017-05-12T08:26:04.485Z,15.46
2017-05-12T08:27:05.742Z,15.6
2017-05-12T08:28:07.059Z,15.63
2017-05-12T08:29:08.477Z,15.48
2017-05-12T08:30:09.722Z,15.64
2017-05-12T08:31:11.050Z,15.63
2017-05-12T08:32:12.277Z,15.78
2017-05-12T08:33:13.578Z,15.76
2017-05-12T08:34:14.859Z,15.92
2017-05-12T08:35:16.087Z,15.96
2017-05-12T08:36:17.354Z,16.12
2017-05-12T08:37:18.647Z,16.2
2017-05-12T08:38:19.924Z,16.18
2017-05-12T08:39:21.180Z,16.35
2017-05-12T08:40:22.505Z,16.44
2017-05-12T08:41:23.793Z,16.62
2017-05-12T08:42:25.138Z,16.75
2017-05-12T08:43:26.371Z,16.93
2017-05-12T08:44:27.617Z,17.06
2017-05-12T08:45:28.963Z,17.14
2017-05-12T08:46:30.196Z,17.44
2017-05-12T08:47:31.527Z,17.54
2017-05-12T08:48:32.803Z,17.59
2017-05-12T08:49:34.066Z,17.55
2017-05-12T08:50:35.327Z,17.53
2017-05-12T08:51:36.561Z,17.46
2017-05-12T08:52:37.840Z,17.26
2017-05-12T08:53:39.079Z,17.22
2017-05-12T08:54:40.354Z,17.15
2017-05-12T08:55:41.598Z,17.18
2017-05-12T08:56:42.917Z,17.11
2017-05-12T08:57:44.297Z,17.17
2017-05-12T08:58:45.598Z,17.11
2017-05-12T08:59:46.894Z,17.15
2017-05-12T09:00:48.133Z,17.18
2017-05-12T09:01:49.459Z,17.1
2017-05-12T09:02:50.780Z,17.03
2017-05-12T09:03:52.106Z,17.03
2017-05-12T09:04:53.340Z,17.07
2017-05-12T09:05:54.619Z,17.11
2017-05-12T09:06:55.899Z,17.1
2017-05-12T09:07:57.166Z,17.03
2017-05-12T09:08:58.417Z,16.96
2017-05-12T09:09:59.740Z,16.9
2017-05-12T09:11:00.985Z,16.9
2017-05-12T09:12:02.306Z,16.86
2017-05-12T09:13:03.561Z,16.88
2017-05-12T09:14:04.916Z,16.7
2017-05-12T09:15:06.195Z,16.7
2017-05-12T09:16:07.521Z,16.58
2017-05-12T09:17:08.763Z,16.63
2017-05-12T09:18:10.032Z,16.5
2017-05-12T09:19:11.261Z,16.52
2017-05-12T09:20:12.612Z,16.58
2017-05-12T09:21:13.834Z,16.58
2017-05-12T09:22:15.082Z,16.56
2017-05-12T09:23:16.374Z,16.49
2017-05-12T09:24:17.662Z,16.58
2017-05-12T09:25:18.920Z,16.7
2017-05-12T09:26:20.194Z,16.78
2017-05-12T09:27:21.458Z,16.99
2017-05-12T09:28:22.740Z,17.11
2017-05-12T09:29:24.016Z,17.22
2017-05-12T09:30:25.269Z,17.41
2017-05-12T09:31:26.519Z,17.57
2017-05-12T09:32:27.775Z,17.76
2017-05-12T09:33:29.033Z,17.76
2017-05-12T09:34:30.288Z,17.87
2017-05-12T09:35:31.605Z,17.91
2017-05-12T09:36:32.963Z,17.92
2017-05-12T09:37:34.229Z,17.95
2017-05-12T09:38:35.513Z,18.09
2017-05-12T09:39:36.740Z,18
2017-05-12T09:40:38.009Z,17.92
2017-05-12T09:41:39.339Z,17.94
2017-05-12T09:42:40.591Z,18.13
2017-05-12T09:43:41.888Z,18.13
2017-05-12T09:44:43.182Z,18.34
2017-05-12T09:45:44.626Z,18.49
2017-05-12T09:46:45.773Z,18.74
2017-05-12T09:47:47.090Z,18.92
2017-05-12T09:48:48.406Z,18.86
2017-05-12T09:49:49.625Z,18.83
2017-05-12T09:50:50.915Z,18.86
2017-05-12T09:51:52.342Z,19.05
2017-05-12T09:52:53.605Z,19.24
2017-05-12T09:53:54.957Z,19.38
2017-05-12T09:54:56.211Z,19.33
2017-05-12T09:55:57.472Z,19.25
2017-05-12T09:56:58.776Z,19.25
2017-05-12T09:58:00.031Z,19.28
2017-05-12T09:59:01.327Z,19.28
2017-05-12T10:00:02.572Z,19.2
2017-05-12T10:01:03.859Z,19.25
2017-05-12T10:02:05.211Z,19.15
2017-05-12T10:03:06.483Z,19.17
2017-05-12T10:04:07.742Z,19.13
2017-05-12T10:05:09.083Z,19.11
2017-05-12T10:06:10.316Z,19.08
2017-05-12T10:07:11.625Z,19.1
2017-05-12T10:08:12.848Z,18.99
2017-05-12T10:09:14.107Z,18.76
2017-05-12T10:10:15.393Z,18.65
2017-05-12T10:11:16.665Z,18.74
2017-05-12T10:12:17.924Z,18.74
2017-05-12T10:13:19.210Z,18.87
2017-05-12T10:14:20.560Z,18.97
2017-05-12T10:15:21.823Z,18.95
2017-05-12T10:16:23.105Z,18.83
2017-05-12T10:17:24.343Z,18.74
2017-05-12T10:18:25.607Z,18.61
2017-05-12T10:19:26.864Z,18.62
2017-05-12T10:20:28.116Z,18.54
2017-05-12T10:21:29.481Z,18.59
2017-05-12T10:22:30.785Z,18.65
2017-05-12T10:23:32.050Z,18.67
2017-05-12T10:24:33.301Z,18.64
2017-05-12T10:25:34.650Z,18.72
2017-05-12T10:26:35.942Z,18.79
2017-05-12T10:27:37.256Z,18.94
2017-05-12T10:28:38.525Z,19.14
2017-05-12T10:29:39.781Z,19.14
2017-05-12T10:30:41.036Z,19.35
2017-05-12T10:31:42.305Z,19.17
2017-05-12T10:32:43.533Z,19.1
2017-05-12T10:33:44.820Z,18.95
2017-05-12T10:34:46.076Z,18.97
2017-05-12T10:35:47.340Z,19.02
2017-05-12T10:36:48.586Z,19.14
2017-05-12T10:37:49.874Z,19.29
2017-05-12T10:38:51.144Z,19.46
2017-05-12T10:39:52.514Z,19.55
2017-05-12T10:40:53.777Z,19.76
2017-05-12T10:41:55.029Z,19.95
2017-05-12T10:42:56.305Z,19.87
2017-05-12T10:43:57.563Z,19.79
2017-05-12T10:44:58.859Z,19.76
2017-05-12T10:46:00.107Z,19.79
2017-05-12T10:47:01.369Z,19.88
2017-05-12T10:48:02.692Z,20.13
2017-05-12T10:49:03.965Z,20.43
2017-05-12T10:50:05.332Z,20.58
2017-05-12T10:51:06.774Z,20.72
2017-05-12T10:52:07.987Z,20.74
2017-05-12T10:53:09.297Z,20.69
2017-05-12T10:54:10.569Z,20.68
2017-05-12T10:55:11.820Z,20.72
2017-05-12T10:56:13.180Z,20.87
2017-05-12T10:57:14.583Z,20.89
2017-05-12T10:58:16.023Z,21.02
2017-05-12T10:59:17.191Z,21.02
2017-05-12T11:00:18.438Z,21.13
2017-05-12T11:01:19.684Z,20.98
2017-05-12T11:02:20.931Z,21.01
2017-05-12T11:03:22.220Z,21.16
2017-05-12T11:04:23.466Z,21.21
2017-05-12T11:05:24.744Z,21.42
2017-05-12T11:06:25.985Z,21.45
2017-05-12T11:07:27.327Z,21.26
2017-05-12T11:08:28.617Z,21.26
2017-05-12T11:09:29.860Z,21.45
2017-05-12T11:10:31.123Z,21.83
2017-05-12T11:11:32.442Z,21.88
2017-05-12T11:12:33.701Z,22.2
2017-05-12T11:13:35.054Z,22.56
2017-05-12T11:14:36.389Z,22.47
2017-05-12T11:15:37.630Z,22.64
2017-05-12T11:16:39.131Z,22.46
2017-05-12T11:17:40.496Z,22.5
2017-05-12T11:18:41.766Z,22.6
2017-05-12T11:19:43.131Z,22.31
2017-05-12T11:20:44.377Z,22.14
2017-05-12T11:21:45.636Z,22.06
2017-05-12T11:22:46.973Z,21.9
2017-05-12T11:23:48.245Z,21.88
2017-05-12T11:24:49.521Z,21.6
2017-05-12T11:25:50.788Z,21.59
2017-05-12T11:26:52.063Z,21.56
2017-05-12T11:27:53.310Z,21.53
2017-05-12T11:28:54.595Z,21.3
2017-05-12T11:29:55.878Z,21.09
2017-05-12T11:30:57.249Z,21.04
2017-05-12T11:31:58.529Z,21.23
2017-05-12T11:32:59.801Z,21.2
2017-05-12T11:34:01.092Z,21.42
2017-05-12T11:35:02.309Z,21.76
2017-05-12T11:36:03.571Z,21.78
2017-05-12T11:37:04.905Z,22.06
2017-05-12T11:38:06.216Z,22.49
2017-05-12T11:39:07.445Z,22.68
2017-05-12T11:40:08.715Z,22.71
2017-05-12T11:41:10.010Z,22.68
2017-05-12T11:42:11.235Z,22.86
2017-05-12T11:43:12.626Z,22.9
2017-05-12T11:44:13.866Z,22.5
2017-05-12T11:45:15.127Z,22.29
2017-05-12T11:46:16.394Z,22.27
2017-05-12T11:47:17.656Z,22.37
2017-05-12T11:48:18.989Z,22.43
2017-05-12T11:49:20.323Z,22.56
2017-05-12T11:50:21.588Z,22.72
2017-05-12T11:51:22.924Z,22.9
2017-05-12T11:52:24.089Z,22.94
2017-05-12T11:53:25.368Z,23.23
2017-05-12T11:54:26.627Z,23.19
2017-05-12T11:55:27.985Z,23.15
2017-05-12T11:56:29.243Z,23.14
2017-05-12T11:57:30.522Z,23.15
2017-05-12T11:58:31.798Z,23.08
2017-05-12T11:59:33.149Z,23.01
2017-05-12T12:00:34.429Z,22.71
2017-05-12T12:01:35.660Z,22.69
2017-05-12T12:02:37.081Z,22.57
2017-05-12T12:03:38.313Z,22.57
2017-05-12T12:04:39.567Z,22.59
2017-05-12T12:05:40.826Z,22.67
2017-05-12T12:06:42.103Z,22.71
2017-05-12T12:07:43.385Z,22.84
2017-05-12T12:08:44.680Z,22.96
2017-05-12T12:09:45.944Z,23.15
2017-05-12T12:10:47.323Z,23.2
2017-05-12T12:11:48.685Z,23.31
2017-05-12T12:12:49.932Z,23.09
2017-05-12T12:13:51.196Z,23.07
2017-05-12T12:14:52.477Z,23.09
2017-05-12T12:15:53.732Z,22.94
2017-05-12T12:16:55.055Z,22.93
2017-05-12T12:17:56.335Z,22.86
2017-05-12T12:18:57.588Z,22.93
2017-05-12T12:19:58.888Z,23.2
2017-05-12T12:21:00.121Z,23.19
2017-05-12T12:22:01.371Z,23.4
2017-05-12T12:23:02.643Z,23.38
2017-05-12T12:24:03.912Z,23.17
2017-05-12T12:25:05.163Z,23.07
2017-05-12T12:26:06.430Z,22.99
2017-05-12T12:27:07.686Z,23.01
2017-05-12T12:28:09.025Z,23.02
2017-05-12T12:29:10.339Z,23.22
2017-05-12T12:30:11.698Z,23.34
2017-05-12T12:31:12.956Z,23.35
2017-05-12T12:32:14.219Z,23.42
2017-05-12T12:33:15.481Z,23.5
2017-05-12T12:34:16.759Z,23.5
2017-05-12T12:35:18.044Z,23.5
2017-05-12T12:36:19.323Z,23.47
2017-05-12T12:37:20.616Z,23.61
2017-05-12T12:38:21.873Z,23.62
2017-05-12T12:39:23.166Z,23.53
2017-05-12T12:40:24.470Z,23.62
2017-05-12T12:41:25.706Z,23.68
2017-05-12T12:42:26.988Z,23.7
2017-05-12T12:43:28.253Z,23.72
2017-05-12T12:44:29.513Z,23.7
2017-05-12T12:45:30.762Z,23.86
2017-05-12T12:46:32.041Z,23.89
2017-05-12T12:47:33.396Z,23.94
2017-05-12T12:48:34.675Z,23.86
2017-05-12T12:49:35.969Z,23.58
2017-05-12T12:50:37.217Z,23.05
2017-05-12T12:51:38.503Z,22.92
2017-05-12T12:52:39.769Z,23.02
2017-05-12T12:53:41.039Z,22.97
2017-05-12T12:54:42.393Z,22.89
2017-05-12T12:55:43.692Z,22.8
2017-05-12T12:56:44.992Z,22.72
2017-05-12T12:57:46.260Z,22.74
2017-05-12T12:58:47.538Z,22.71
2017-05-12T12:59:48.793Z,22.71
2017-05-12T13:00:50.060Z,22.64
2017-05-12T13:01:51.335Z,22.57
2017-05-12T13:02:52.575Z,22.62
2017-05-12T13:03:53.854Z,22.6
2017-05-12T13:04:55.186Z,22.6
2017-05-12T13:05:56.497Z,22.56
2017-05-12T13:06:57.730Z,22.43
2017-05-12T13:07:59.020Z,22.29
2017-05-12T13:09:00.271Z,22.02
2017-05-12T13:10:01.518Z,21.66
2017-05-12T13:11:02.857Z,21.2
2017-05-12T13:12:04.076Z,20.71
2017-05-12T13:13:05.357Z,20.2